Terminal Aerodrome Forecast
Issued by NWS Wilmington, OH

Current Version | Previous Version | Graphics & Text | Print | Product List | Glossary On
Versions: 1 2 3 4 5 6 7 8 9 10 11 12 13 14 15 16 17 18 19 20 21 22 23 24 25 26
071
FTUS41 KILN 140901 AAA
TAFCVG
TAF AMD
KCVG 140901Z 1409/1512 32012G20KT P6SM BKN028 OVC035
     FM141200 34009KT P6SM OVC025
     FM141600 36007KT P6SM SCT030 BKN200
     FM150200 VRB03KT P6SM OVC150
     FM151000 20005KT P6SM BKN035=

USA.gov is the U.S. government's official web portal to all federal, state and local government web resources and services.